createdAt,value
2022-10-13T00:00:45.651Z,63.22
2022-10-13T00:03:12.553Z,63.21
2022-10-13T00:05:43.927Z,63.63
2022-10-13T00:08:11.808Z,63.74
2022-10-13T00:10:47.142Z,63.96
2022-10-13T00:13:15.000Z,64.19
2022-10-13T00:15:44.871Z,63.81
2022-10-13T00:18:12.103Z,64.17
2022-10-13T00:20:43.677Z,63.71
2022-10-13T00:23:10.625Z,63.49
2022-10-13T00:25:44.157Z,63.69
2022-10-13T00:28:11.537Z,63.96
2022-10-13T00:30:39.150Z,63.66
2022-10-13T00:33:06.521Z,63.79
2022-10-13T00:35:34.040Z,63.58
2022-10-13T00:38:00.813Z,63.88
2022-10-13T00:40:31.009Z,63.83
2022-10-13T00:42:57.767Z,63.83
2022-10-13T00:45:27.433Z,63.74
2022-10-13T00:47:58.136Z,64.12
2022-10-13T00:50:29.944Z,63.95
2022-10-13T00:52:58.585Z,63.75
2022-10-13T00:55:31.437Z,63.81
2022-10-13T00:58:05.107Z,63.84
2022-10-13T01:00:34.278Z,64.03
2022-10-13T01:03:02.186Z,64.06
2022-10-13T01:05:30.235Z,64.16
2022-10-13T01:07:57.930Z,63.73
2022-10-13T01:10:46.100Z,64.15
2022-10-13T01:13:39.006Z,64.06
2022-10-13T01:16:10.489Z,64.27
2022-10-13T01:19:05.639Z,64.22
2022-10-13T01:21:48.975Z,63.65
2022-10-13T01:25:03.180Z,64.17
2022-10-13T01:59:40.391Z,64.01
2022-10-13T02:02:19.012Z,63.92
2022-10-13T02:04:56.638Z,64.04
2022-10-13T02:07:46.930Z,64.33
2022-10-13T02:10:26.380Z,63.97
2022-10-13T02:13:07.892Z,64.10
2022-10-13T02:15:41.315Z,64.32
2022-10-13T02:18:10.110Z,63.70
2022-10-13T02:20:37.385Z,64.12
2022-10-13T02:23:12.017Z,64.06
2022-10-13T02:25:39.905Z,63.95
2022-10-13T02:28:07.479Z,63.99
2022-10-13T02:30:42.621Z,64.01
2022-10-13T02:33:09.633Z,63.86
2022-10-13T02:35:37.438Z,63.80
2022-10-13T02:38:04.247Z,64.40
2022-10-13T02:40:31.134Z,64.08
2022-10-13T02:42:57.831Z,63.65
2022-10-13T02:45:24.611Z,64.18
2022-10-13T02:47:55.636Z,64.32
2022-10-13T02:50:22.212Z,63.95
2022-10-13T02:52:50.206Z,64.00
2022-10-13T02:55:16.802Z,63.73
2022-10-13T02:57:45.856Z,64.25
2022-10-13T03:00:13.401Z,64.22
2022-10-13T03:02:40.255Z,64.08
2022-10-13T03:05:07.149Z,64.27
2022-10-13T03:07:33.779Z,64.35
2022-10-13T03:10:00.462Z,64.25
2022-10-13T03:12:27.153Z,64.23
2022-10-13T03:14:53.769Z,64.29
2022-10-13T03:17:20.347Z,64.27
2022-10-13T03:19:46.962Z,64.47
2022-10-13T03:22:17.741Z,64.79
2022-10-13T03:24:45.320Z,64.62
2022-10-13T03:27:11.930Z,64.25
2022-10-13T03:29:39.079Z,64.29
2022-10-13T03:32:05.710Z,64.24
2022-10-13T03:34:32.575Z,63.96
2022-10-13T03:36:59.386Z,63.92
2022-10-13T03:39:26.758Z,64.28
2022-10-13T03:41:53.430Z,64.43
2022-10-13T03:44:20.349Z,64.11
2022-10-13T03:46:47.153Z,64.25
2022-10-13T03:49:13.804Z,63.72
2022-10-13T03:51:40.887Z,64.12
2022-10-13T03:54:07.437Z,64.15
2022-10-13T03:56:34.030Z,64.06
2022-10-13T03:59:01.316Z,64.27
2022-10-13T04:01:30.683Z,64.55
2022-10-13T04:03:58.358Z,64.08
2022-10-13T04:06:26.524Z,64.09
2022-10-13T04:08:53.290Z,64.17
2022-10-13T04:11:21.552Z,64.56
2022-10-13T04:13:51.205Z,64.36
2022-10-13T04:16:21.254Z,64.19
2022-10-13T04:18:52.825Z,63.89
2022-10-13T04:21:19.779Z,63.83
2022-10-13T04:23:46.296Z,63.73
2022-10-13T04:26:18.468Z,63.98
2022-10-13T04:28:46.568Z,64.20
2022-10-13T04:31:13.902Z,64.22
2022-10-13T04:33:40.904Z,64.15
2022-10-13T04:36:10.186Z,63.77
2022-10-13T04:38:36.942Z,63.71
2022-10-13T04:41:05.258Z,64.06
2022-10-13T04:43:32.679Z,64.01
2022-10-13T04:46:25.550Z,64.10
2022-10-13T04:48:55.648Z,64.27
2022-10-13T04:51:28.577Z,64.06
2022-10-13T04:53:59.183Z,64.43
2022-10-13T04:56:26.147Z,64.41
2022-10-13T04:58:53.712Z,64.40
2022-10-13T05:01:23.033Z,64.54
2022-10-13T05:03:54.602Z,64.21
2022-10-13T05:06:26.019Z,64.20
2022-10-13T05:08:56.378Z,64.27
2022-10-13T05:11:24.387Z,64.36
2022-10-13T05:13:50.982Z,63.93
2022-10-13T05:16:18.841Z,64.12
2022-10-13T05:18:45.744Z,64.10
2022-10-13T05:21:18.048Z,63.90
2022-10-13T05:23:47.866Z,64.08
2022-10-13T05:26:17.943Z,63.94
2022-10-13T05:28:44.958Z,64.28
2022-10-13T05:31:15.834Z,63.96
2022-10-13T05:33:43.117Z,63.92
2022-10-13T05:36:12.724Z,64.01
2022-10-13T05:38:39.726Z,63.93
2022-10-13T05:41:09.772Z,63.75
2022-10-13T05:43:37.771Z,64.03
2022-10-13T05:46:04.725Z,63.83
2022-10-13T05:48:36.971Z,63.86
2022-10-13T05:51:09.870Z,63.92
2022-10-13T05:53:39.263Z,63.71
2022-10-13T05:56:11.333Z,63.96
2022-10-13T05:58:49.047Z,63.88
2022-10-13T06:01:19.847Z,63.89
2022-10-13T06:03:49.251Z,63.98
2022-10-13T06:06:15.914Z,64.35
2022-10-13T06:08:42.791Z,64.05
2022-10-13T06:11:09.702Z,64.02
2022-10-13T06:13:36.453Z,63.98
2022-10-13T06:16:04.024Z,64.01
2022-10-13T06:18:30.788Z,63.60
2022-10-13T06:20:57.556Z,63.73
2022-10-13T06:23:24.197Z,63.99
2022-10-13T06:25:52.465Z,63.76
2022-10-13T06:28:19.952Z,63.72
2022-10-13T06:30:53.413Z,63.78
2022-10-13T06:33:24.004Z,64.01
2022-10-13T06:35:52.658Z,63.92
2022-10-13T06:38:19.715Z,63.87
2022-10-13T06:40:48.292Z,64.02
2022-10-13T06:43:14.886Z,64.16
2022-10-13T06:45:41.712Z,63.95
2022-10-13T06:48:08.369Z,64.03
2022-10-13T06:50:37.293Z,63.51
2022-10-13T06:53:07.456Z,63.49
2022-10-13T06:55:34.259Z,64.11
2022-10-13T06:58:01.016Z,64.55
2022-10-13T07:00:28.004Z,63.99
2022-10-13T07:02:54.665Z,64.21
2022-10-13T07:05:21.392Z,64.26
2022-10-13T07:07:48.236Z,64.15
2022-10-13T07:10:15.031Z,64.12
2022-10-13T07:12:42.092Z,63.66
2022-10-13T07:15:09.132Z,63.68
2022-10-13T07:17:35.884Z,63.46
2022-10-13T07:20:07.256Z,63.13
2022-10-13T07:22:34.437Z,63.18
2022-10-13T07:25:01.194Z,63.09
2022-10-13T07:27:28.386Z,63.29
2022-10-13T07:29:55.786Z,63.13
2022-10-13T07:32:22.369Z,63.27
2022-10-13T07:34:52.550Z,63.09
2022-10-13T07:37:19.507Z,62.80
2022-10-13T07:39:46.978Z,63.08
2022-10-13T07:42:13.808Z,63.21
2022-10-13T07:44:40.439Z,62.99
2022-10-13T07:47:07.042Z,63.14
2022-10-13T07:49:33.719Z,63.24
2022-10-13T07:52:04.445Z,62.87
2022-10-13T07:54:31.583Z,63.06
2022-10-13T07:56:58.406Z,63.18
2022-10-13T07:59:25.177Z,63.24
2022-10-13T08:01:51.862Z,63.10
2022-10-13T08:04:18.640Z,63.17
2022-10-13T08:06:45.410Z,63.20
2022-10-13T08:09:12.390Z,63.36
2022-10-13T08:11:38.984Z,62.78
2022-10-13T08:14:05.574Z,62.67
2022-10-13T08:16:33.220Z,62.90
2022-10-13T08:19:00.221Z,63.20
2022-10-13T08:22:27.273Z,62.94
2022-10-13T08:24:16.677Z,63.24
2022-10-13T08:26:45.500Z,63.34
2022-10-13T08:29:28.221Z,63.33
2022-10-13T08:31:55.297Z,63.27
2022-10-13T08:34:24.765Z,63.00
2022-10-13T08:36:54.477Z,62.91
2022-10-13T08:39:23.328Z,62.63
2022-10-13T08:41:50.511Z,62.82
2022-10-13T08:47:46.775Z,62.60
2022-10-13T08:50:17.685Z,62.83
2022-10-13T08:53:18.591Z,62.87
2022-10-13T08:55:52.107Z,63.02
2022-10-13T08:58:23.790Z,62.93
2022-10-13T09:01:05.323Z,63.00
2022-10-13T09:03:32.142Z,63.57
2022-10-13T09:06:04.006Z,63.37
2022-10-13T09:08:45.471Z,63.04
2022-10-13T09:11:13.325Z,63.02
2022-10-13T09:13:40.684Z,63.46
2022-10-13T09:16:07.624Z,63.46
2022-10-13T09:18:35.011Z,63.44
2022-10-13T09:21:17.676Z,63.59
2022-10-13T09:23:44.536Z,63.63
2022-10-13T09:26:22.511Z,63.71
2022-10-13T09:28:50.821Z,63.21
2022-10-13T09:31:26.621Z,63.12
2022-10-13T09:34:13.118Z,63.50
2022-10-13T09:36:55.452Z,63.45
2022-10-13T09:39:22.790Z,63.47
2022-10-13T09:41:50.022Z,63.49
2022-10-13T09:44:27.794Z,63.59
2022-10-13T09:47:01.370Z,63.47
2022-10-13T09:49:39.831Z,63.75
2022-10-13T09:52:17.069Z,63.43
2022-10-13T09:54:51.044Z,63.54
2022-10-13T09:57:41.389Z,63.50
2022-10-13T10:00:24.300Z,63.37
2022-10-13T10:02:53.657Z,63.47
2022-10-13T10:05:20.178Z,63.43
2022-10-13T10:07:48.456Z,63.61
2022-10-13T10:10:28.261Z,63.72
2022-10-13T10:12:55.070Z,63.42
2022-10-13T10:15:29.398Z,63.57
2022-10-13T10:18:01.770Z,63.44
2022-10-13T10:20:28.496Z,63.91
2022-10-13T10:23:05.781Z,64.02
2022-10-13T10:25:42.489Z,63.40
2022-10-13T10:28:32.077Z,63.48
2022-10-13T10:31:12.190Z,63.29
2022-10-13T10:33:45.880Z,63.41
2022-10-13T10:36:17.916Z,63.19
2022-10-13T10:39:01.530Z,63.13
2022-10-13T10:41:54.371Z,62.98
2022-10-13T10:44:29.556Z,62.74
2022-10-13T10:47:02.072Z,62.65
2022-10-13T10:49:33.881Z,62.68
2022-10-13T10:52:05.961Z,62.56
2022-10-13T10:54:57.076Z,62.66
2022-10-13T10:57:31.373Z,62.63
2022-10-13T11:00:06.274Z,62.57
2022-10-13T11:02:46.137Z,62.50
2022-10-13T11:05:13.826Z,62.31
2022-10-13T11:07:40.416Z,62.24
2022-10-13T11:10:17.983Z,62.28
2022-10-13T11:12:53.410Z,62.20
2022-10-13T11:15:26.191Z,62.29
2022-10-13T11:17:52.974Z,62.29
2022-10-13T11:20:22.332Z,62.08
2022-10-13T11:22:58.030Z,62.01
2022-10-13T11:25:42.407Z,62.38
2022-10-13T11:28:26.104Z,62.40
2022-10-13T11:30:55.458Z,62.48
2022-10-13T11:33:40.167Z,62.37
2022-10-13T11:36:30.295Z,62.47
2022-10-13T11:42:03.756Z,62.31
2022-10-13T11:44:51.746Z,61.94
2022-10-13T11:47:29.012Z,62.02
2022-10-13T11:49:58.278Z,62.03
2022-10-13T11:52:39.281Z,62.89
2022-10-13T11:55:13.724Z,62.74
2022-10-13T11:57:41.496Z,62.55
2022-10-13T12:00:15.703Z,62.63
2022-10-13T12:02:50.700Z,62.46
2022-10-13T12:05:25.567Z,62.39
2022-10-13T12:08:00.534Z,62.23
2022-10-13T12:10:32.931Z,62.26
2022-10-13T12:13:01.032Z,62.41
2022-10-13T12:15:33.950Z,62.52
2022-10-13T12:18:00.844Z,62.35
2022-10-13T12:20:31.849Z,62.35
2022-10-13T12:22:58.719Z,62.57
2022-10-13T12:25:30.620Z,62.56
2022-10-13T12:28:00.234Z,62.11
2022-10-13T12:30:29.573Z,62.14
2022-10-13T12:32:59.245Z,62.45
2022-10-13T12:35:31.775Z,62.18
2022-10-13T12:38:02.666Z,62.17
2022-10-13T12:40:30.664Z,62.15
2022-10-13T12:42:57.928Z,61.93
2022-10-13T12:45:28.218Z,62.09
2022-10-13T12:47:55.791Z,61.96
2022-10-13T12:50:25.261Z,61.93
2022-10-13T12:53:02.375Z,61.81
2022-10-13T12:55:29.465Z,61.74
2022-10-13T12:57:56.168Z,61.77
2022-10-13T13:00:24.878Z,61.93
2022-10-13T13:02:51.411Z,61.60
2022-10-13T13:05:39.338Z,61.85
2022-10-13T13:08:22.380Z,61.66
2022-10-13T13:11:02.062Z,61.87
2022-10-13T13:13:29.741Z,61.61
2022-10-13T13:16:17.814Z,61.75
2022-10-13T13:18:46.801Z,61.51
2022-10-13T13:21:15.797Z,61.95
2022-10-13T13:23:49.590Z,61.72
2022-10-13T13:26:21.779Z,61.94
2022-10-13T13:28:50.099Z,61.76
2022-10-13T13:31:19.938Z,61.47
2022-10-13T13:33:47.752Z,61.78
2022-10-13T13:36:16.050Z,61.99
2022-10-13T13:38:46.810Z,62.05
2022-10-13T13:41:13.778Z,62.03
2022-10-13T13:43:40.632Z,62.10
2022-10-13T13:46:17.101Z,62.06
2022-10-13T13:48:44.188Z,62.10
2022-10-13T13:51:10.901Z,62.32
2022-10-13T13:53:37.824Z,62.17
2022-10-13T13:56:05.258Z,62.32
2022-10-13T13:58:32.004Z,62.34
2022-10-13T14:00:59.892Z,62.16
2022-10-13T14:03:26.530Z,62.36
2022-10-13T14:05:53.117Z,62.30
2022-10-13T14:08:19.785Z,62.19
2022-10-13T14:10:46.562Z,62.43
2022-10-13T14:13:17.950Z,62.59
2022-10-13T14:15:44.612Z,62.82
2022-10-13T14:18:11.278Z,62.76
2022-10-13T14:20:41.354Z,62.84
2022-10-13T14:23:07.888Z,63.17
2022-10-13T14:25:34.468Z,63.01
2022-10-13T14:28:00.958Z,62.95
2022-10-13T14:30:27.722Z,63.10
2022-10-13T14:32:54.488Z,63.32
2022-10-13T14:35:22.753Z,63.32
2022-10-13T14:37:49.957Z,62.93
2022-10-13T14:40:16.764Z,63.40
2022-10-13T14:42:43.774Z,63.13
2022-10-13T14:45:15.860Z,62.75
2022-10-13T14:47:42.849Z,63.09
2022-10-13T14:50:10.033Z,62.77
2022-10-13T14:52:36.736Z,62.99
2022-10-13T14:55:03.480Z,62.76
2022-10-13T14:57:30.023Z,62.27
2022-10-13T15:00:00.899Z,62.63
2022-10-13T15:02:28.804Z,62.43
2022-10-13T15:04:55.457Z,62.51
2022-10-13T15:07:22.396Z,62.62
2022-10-13T15:10:04.404Z,62.42
2022-10-13T15:12:31.940Z,62.37
2022-10-13T15:14:58.676Z,62.56
2022-10-13T15:17:25.636Z,62.27
2022-10-13T15:19:52.151Z,62.62
2022-10-13T15:22:19.000Z,62.42
2022-10-13T15:24:45.796Z,62.46
2022-10-13T15:27:12.365Z,62.33
2022-10-13T15:29:39.224Z,62.43
2022-10-13T15:32:09.439Z,62.33
2022-10-13T15:34:37.820Z,62.42
2022-10-13T15:37:04.414Z,62.31
2022-10-13T15:39:31.181Z,62.32
2022-10-13T15:41:58.004Z,62.38
2022-10-13T15:44:25.184Z,62.37
2022-10-13T15:47:07.418Z,62.35
2022-10-13T15:49:39.313Z,62.38
2022-10-13T15:52:05.985Z,62.11
2022-10-13T15:54:32.625Z,61.88
2022-10-13T15:56:59.736Z,61.90
2022-10-13T15:59:26.353Z,61.88
2022-10-13T16:01:52.969Z,62.15
2022-10-13T16:04:19.503Z,62.00
2022-10-13T16:06:46.042Z,62.29
2022-10-13T16:09:12.810Z,62.12
2022-10-13T16:11:39.634Z,62.00
2022-10-13T16:14:06.369Z,62.09
2022-10-13T16:16:33.151Z,61.90
2022-10-13T16:19:00.205Z,61.72
2022-10-13T16:21:27.551Z,61.92
2022-10-13T16:23:54.253Z,61.67
2022-10-13T16:26:21.037Z,61.72
2022-10-13T16:28:47.893Z,61.72
2022-10-13T16:31:16.992Z,61.58
2022-10-13T16:33:45.579Z,61.74
2022-10-13T16:36:17.551Z,61.97
2022-10-13T16:38:45.345Z,61.93
2022-10-13T16:41:15.481Z,61.82
2022-10-13T16:43:43.118Z,61.92
2022-10-13T16:46:15.084Z,61.96
2022-10-13T16:48:42.908Z,61.74
2022-10-13T16:51:14.636Z,61.69
2022-10-13T16:53:41.630Z,61.74
2022-10-13T16:56:08.886Z,62.00
2022-10-13T16:58:35.716Z,62.02
2022-10-13T17:01:05.572Z,61.76
2022-10-13T17:03:32.205Z,62.07
2022-10-13T17:05:58.781Z,61.58
2022-10-13T17:08:25.392Z,61.61
2022-10-13T17:10:58.017Z,60.96
2022-10-13T17:13:25.116Z,61.74
2022-10-13T17:15:53.204Z,61.75
2022-10-13T17:18:20.858Z,61.71
2022-10-13T17:20:56.207Z,61.77
2022-10-13T17:23:24.394Z,61.87
2022-10-13T17:25:52.303Z,61.93
2022-10-13T17:28:19.626Z,62.06
2022-10-13T17:30:58.698Z,61.72
2022-10-13T17:33:27.283Z,62.02
2022-10-13T17:36:00.115Z,62.04
2022-10-13T17:38:26.753Z,62.30
2022-10-13T17:40:57.367Z,62.14
2022-10-13T17:43:26.368Z,62.36
2022-10-13T17:45:53.768Z,62.15
2022-10-13T17:48:23.105Z,62.10
2022-10-13T17:50:50.146Z,62.36
2022-10-13T17:53:18.771Z,62.42
2022-10-13T17:55:45.598Z,62.78
2022-10-13T17:58:14.100Z,62.60
2022-10-13T18:01:07.988Z,62.63
2022-10-13T18:03:27.222Z,62.66
2022-10-13T18:05:53.782Z,62.71
2022-10-13T18:08:21.254Z,62.61
2022-10-13T18:11:12.505Z,62.71
2022-10-13T18:13:35.401Z,62.71
2022-10-13T18:16:23.496Z,62.86
2022-10-13T18:18:51.650Z,62.97
2022-10-13T18:21:22.504Z,63.04
2022-10-13T18:23:51.723Z,63.00
2022-10-13T18:26:19.956Z,63.17
2022-10-13T18:28:48.546Z,63.01
2022-10-13T18:31:32.157Z,63.03
2022-10-13T18:34:02.502Z,63.23
2022-10-13T18:36:39.062Z,63.10
2022-10-13T18:39:10.726Z,63.20
2022-10-13T18:41:39.305Z,63.17
2022-10-13T18:44:06.649Z,63.18
2022-10-13T18:46:34.791Z,63.21
2022-10-13T18:49:02.731Z,63.35
2022-10-13T18:51:35.604Z,63.30
2022-10-13T18:54:02.733Z,63.43
2022-10-13T18:56:31.638Z,63.30
2022-10-13T18:59:00.942Z,63.31
2022-10-13T19:01:30.849Z,63.39
2022-10-13T19:03:57.782Z,63.34
2022-10-13T19:06:28.857Z,63.39
2022-10-13T19:08:57.559Z,63.44
2022-10-13T19:11:24.718Z,63.41
2022-10-13T19:13:52.079Z,63.38
2022-10-13T19:16:22.045Z,63.42
2022-10-13T19:18:48.856Z,63.48
2022-10-13T19:21:16.080Z,63.46
2022-10-13T19:23:43.381Z,63.68
2022-10-13T19:26:24.232Z,63.45
2022-10-13T19:29:02.100Z,63.41
2022-10-13T19:31:30.867Z,63.53
2022-10-13T19:33:59.586Z,63.56
2022-10-13T19:36:36.047Z,63.52
2022-10-13T19:39:06.470Z,63.61
2022-10-13T19:41:33.748Z,63.70
2022-10-13T19:44:00.763Z,63.57
2022-10-13T19:46:38.458Z,63.63
2022-10-13T19:49:05.472Z,63.60
2022-10-13T19:51:33.583Z,63.66
2022-10-13T19:54:00.928Z,63.66
2022-10-13T19:56:34.041Z,63.69
2022-10-13T19:59:02.323Z,63.63
2022-10-13T20:01:29.143Z,63.73
2022-10-13T20:03:57.988Z,63.77
2022-10-13T20:06:24.738Z,63.67
2022-10-13T20:08:51.679Z,63.64
2022-10-13T20:11:23.652Z,63.61
2022-10-13T20:13:52.048Z,63.63
2022-10-13T20:16:23.012Z,63.71
2022-10-13T20:18:58.436Z,63.69
2022-10-13T20:21:27.139Z,63.89
2022-10-13T20:23:54.420Z,64.00
2022-10-13T20:26:21.431Z,64.04
2022-10-13T20:28:49.843Z,63.84
2022-10-13T20:31:18.631Z,64.06
2022-10-13T20:33:45.625Z,64.08
2022-10-13T20:36:15.444Z,64.02
2022-10-13T20:38:42.137Z,64.03
2022-10-13T20:41:15.356Z,63.69
2022-10-13T20:43:42.016Z,63.57
2022-10-13T20:46:09.224Z,63.31
2022-10-13T20:49:05.019Z,63.27
2022-10-13T20:51:24.619Z,63.02
2022-10-13T20:53:51.916Z,63.01
2022-10-13T20:56:21.317Z,62.88
2022-10-13T20:58:48.286Z,62.77
2022-10-13T21:01:15.996Z,62.71
2022-10-13T21:03:42.723Z,62.62
2022-10-13T21:06:12.041Z,62.43
2022-10-13T21:08:39.111Z,62.36
2022-10-13T21:11:11.807Z,62.63
2022-10-13T21:13:41.634Z,62.62
2022-10-13T21:16:14.651Z,62.36
2022-10-13T21:18:45.766Z,62.56
2022-10-13T21:21:12.361Z,62.64
2022-10-13T21:23:40.804Z,62.45
2022-10-13T21:26:09.909Z,62.03
2022-10-13T21:28:38.846Z,62.40
2022-10-13T21:31:11.685Z,62.36
2022-10-13T21:33:40.019Z,62.11
2022-10-13T21:36:08.792Z,62.24
2022-10-13T21:38:36.054Z,62.28
2022-10-13T21:41:07.575Z,62.22
2022-10-13T21:43:34.726Z,62.15
2022-10-13T21:46:11.436Z,62.03
2022-10-13T21:48:42.943Z,62.11
2022-10-13T21:51:30.724Z,61.99
2022-10-13T21:54:00.345Z,62.06
2022-10-13T21:56:30.533Z,62.14
2022-10-13T21:58:58.927Z,61.66
2022-10-13T22:01:25.816Z,62.17
2022-10-13T22:03:55.137Z,62.56
2022-10-13T22:06:25.909Z,62.57
2022-10-13T22:08:54.345Z,62.48
2022-10-13T22:11:23.085Z,62.45
2022-10-13T22:13:50.167Z,62.61
2022-10-13T22:16:22.445Z,62.46
2022-10-13T22:18:52.554Z,62.54
2022-10-13T22:21:22.601Z,62.42
2022-10-13T22:23:49.777Z,62.31
2022-10-13T22:26:18.417Z,62.42
2022-10-13T22:28:45.612Z,62.04
2022-10-13T22:31:13.297Z,62.63
2022-10-13T22:33:41.569Z,62.73
2022-10-13T22:36:16.555Z,62.60
2022-10-13T22:38:44.544Z,62.72
2022-10-13T22:41:13.213Z,62.81
2022-10-13T22:43:40.150Z,62.95
2022-10-13T22:46:17.465Z,63.15
2022-10-13T22:48:44.540Z,63.05
2022-10-13T22:51:19.714Z,63.02
2022-10-13T22:53:46.884Z,62.78
2022-10-13T22:56:16.401Z,63.52
2022-10-13T22:58:43.202Z,63.73
2022-10-13T23:01:12.775Z,63.51
2022-10-13T23:03:40.303Z,63.68
2022-10-13T23:06:08.848Z,63.60
2022-10-13T23:08:35.480Z,63.70
2022-10-13T23:11:02.016Z,64.00
2022-10-13T23:13:28.577Z,63.69
2022-10-13T23:16:07.912Z,63.99
2022-10-13T23:18:37.600Z,63.93
2022-10-13T23:21:09.270Z,64.35
2022-10-13T23:23:36.084Z,64.29
2022-10-13T23:26:15.159Z,64.35
2022-10-13T23:28:42.647Z,64.34
2022-10-13T23:31:13.309Z,64.07
2022-10-13T23:33:40.017Z,64.37
2022-10-13T23:36:08.856Z,64.54
2022-10-13T23:38:35.398Z,64.45
2022-10-13T23:41:07.076Z,64.46
2022-10-13T23:43:34.285Z,64.45
2022-10-13T23:46:01.146Z,64.47
2022-10-13T23:48:28.529Z,64.66
2022-10-13T23:50:55.422Z,64.51
2022-10-13T23:53:21.954Z,64.57
2022-10-13T23:55:48.718Z,64.74
2022-10-13T23:58:15.499Z,64.72
